sensor_id;sensor_type;location;lat;lon;timestamp;temperature;humidity
39777;DHT22;25453;48.162;14.510;2023-05-10T00:00:48;15.40;55.40
39777;DHT22;25453;48.162;14.510;2023-05-10T00:03:15;15.40;55.30
39777;DHT22;25453;48.162;14.510;2023-05-10T00:05:42;15.40;55.10
39777;DHT22;25453;48.162;14.510;2023-05-10T00:08:09;15.40;55.30
39777;DHT22;25453;48.162;14.510;2023-05-10T00:10:37;15.40;55.30
39777;DHT22;25453;48.162;14.510;2023-05-10T00:13:05;15.40;55.30
39777;DHT22;25453;48.162;14.510;2023-05-10T00:15:32;15.40;55.30
39777;DHT22;25453;48.162;14.510;2023-05-10T00:18:04;15.40;55.00
39777;DHT22;25453;48.162;14.510;2023-05-10T00:20:33;15.40;55.00
39777;DHT22;25453;48.162;14.510;2023-05-10T00:23:00;15.40;54.80
39777;DHT22;25453;48.162;14.510;2023-05-10T00:25:28;15.30;55.00
39777;DHT22;25453;48.162;14.510;2023-05-10T00:27:55;15.30;55.00
39777;DHT22;25453;48.162;14.510;2023-05-10T00:30:23;15.30;55.10
39777;DHT22;25453;48.162;14.510;2023-05-10T00:32:51;15.30;55.10
39777;DHT22;25453;48.162;14.510;2023-05-10T00:35:19;15.40;54.80
39777;DHT22;25453;48.162;14.510;2023-05-10T00:37:46;15.30;54.80
39777;DHT22;25453;48.162;14.510;2023-05-10T00:40:15;15.30;54.80
39777;DHT22;25453;48.162;14.510;2023-05-10T00:42:43;15.40;54.70
39777;DHT22;25453;48.162;14.510;2023-05-10T00:45:10;15.30;54.30
39777;DHT22;25453;48.162;14.510;2023-05-10T00:47:38;15.30;54.40
39777;DHT22;25453;48.162;14.510;2023-05-10T00:50:06;15.20;54.40
39777;DHT22;25453;48.162;14.510;2023-05-10T00:52:34;15.20;54.50
39777;DHT22;25453;48.162;14.510;2023-05-10T00:55:02;15.30;54.30
39777;DHT22;25453;48.162;14.510;2023-05-10T00:57:30;15.20;54.00
39777;DHT22;25453;48.162;14.510;2023-05-10T00:59:59;15.20;54.00
39777;DHT22;25453;48.162;14.510;2023-05-10T01:02:26;15.20;54.30
39777;DHT22;25453;48.162;14.510;2023-05-10T01:04:54;15.20;54.30
39777;DHT22;25453;48.162;14.510;2023-05-10T01:07:21;15.20;54.30
39777;DHT22;25453;48.162;14.510;2023-05-10T01:09:49;15.20;54.30
39777;DHT22;25453;48.162;14.510;2023-05-10T01:12:16;15.20;54.10
39777;DHT22;25453;48.162;14.510;2023-05-10T01:14:43;15.20;54.20
39777;DHT22;25453;48.162;14.510;2023-05-10T01:17:11;15.30;54.20
39777;DHT22;25453;48.162;14.510;2023-05-10T01:19:39;15.30;54.10
39777;DHT22;25453;48.162;14.510;2023-05-10T01:24:53;15.40;54.00
39777;DHT22;25453;48.162;14.510;2023-05-10T01:27:31;15.40;53.70
39777;DHT22;25453;48.162;14.510;2023-05-10T01:32:48;15.30;53.60
39777;DHT22;25453;48.162;14.510;2023-05-10T01:38:15;15.30;53.50
39777;DHT22;25453;48.162;14.510;2023-05-10T01:40:48;15.40;53.50
39777;DHT22;25453;48.162;14.510;2023-05-10T01:43:22;15.40;53.40
39777;DHT22;25453;48.162;14.510;2023-05-10T01:45:59;15.40;53.50
39777;DHT22;25453;48.162;14.510;2023-05-10T01:48:28;15.40;53.40
39777;DHT22;25453;48.162;14.510;2023-05-10T01:50:56;15.40;53.20
39777;DHT22;25453;48.162;14.510;2023-05-10T01:53:23;15.40;53.20
39777;DHT22;25453;48.162;14.510;2023-05-10T01:55:52;15.30;53.30
39777;DHT22;25453;48.162;14.510;2023-05-10T01:58:23;15.30;53.40
39777;DHT22;25453;48.162;14.510;2023-05-10T02:00:55;15.20;53.30
39777;DHT22;25453;48.162;14.510;2023-05-10T02:03:26;15.20;53.30
39777;DHT22;25453;48.162;14.510;2023-05-10T02:05:58;15.20;53.20
39777;DHT22;25453;48.162;14.510;2023-05-10T02:08:26;15.20;53.30
39777;DHT22;25453;48.162;14.510;2023-05-10T02:10:54;15.20;53.20
39777;DHT22;25453;48.162;14.510;2023-05-10T02:13:23;15.10;53.20
39777;DHT22;25453;48.162;14.510;2023-05-10T02:15:53;15.00;53.30
39777;DHT22;25453;48.162;14.510;2023-05-10T02:18:21;15.00;53.50
39777;DHT22;25453;48.162;14.510;2023-05-10T02:20:49;15.00;53.60
39777;DHT22;25453;48.162;14.510;2023-05-10T02:23:18;15.00;53.60
39777;DHT22;25453;48.162;14.510;2023-05-10T02:25:46;15.00;53.60
39777;DHT22;25453;48.162;14.510;2023-05-10T02:28:15;15.00;53.70
39777;DHT22;25453;48.162;14.510;2023-05-10T02:30:46;14.90;53.80
39777;DHT22;25453;48.162;14.510;2023-05-10T02:33:14;14.90;53.80
39777;DHT22;25453;48.162;14.510;2023-05-10T02:35:42;14.80;54.00
39777;DHT22;25453;48.162;14.510;2023-05-10T02:38:09;14.70;54.10
39777;DHT22;25453;48.162;14.510;2023-05-10T02:40:38;14.60;54.20
39777;DHT22;25453;48.162;14.510;2023-05-10T02:43:09;14.50;54.40
39777;DHT22;25453;48.162;14.510;2023-05-10T02:45:39;14.40;55.00
39777;DHT22;25453;48.162;14.510;2023-05-10T02:48:07;14.40;55.40
39777;DHT22;25453;48.162;14.510;2023-05-10T02:50:35;14.40;55.50
39777;DHT22;25453;48.162;14.510;2023-05-10T02:53:46;14.40;55.60
39777;DHT22;25453;48.162;14.510;2023-05-10T02:55:53;14.40;55.80
39777;DHT22;25453;48.162;14.510;2023-05-10T02:58:27;14.40;55.90
39777;DHT22;25453;48.162;14.510;2023-05-10T03:00:54;14.40;56.20
39777;DHT22;25453;48.162;14.510;2023-05-10T03:03:22;14.40;56.30
39777;DHT22;25453;48.162;14.510;2023-05-10T03:05:49;14.50;56.40
39777;DHT22;25453;48.162;14.510;2023-05-10T03:08:16;14.60;56.20
39777;DHT22;25453;48.162;14.510;2023-05-10T03:10:50;14.60;56.20
39777;DHT22;25453;48.162;14.510;2023-05-10T03:13:39;14.50;56.10
39777;DHT22;25453;48.162;14.510;2023-05-10T03:16:15;14.50;56.40
39777;DHT22;25453;48.162;14.510;2023-05-10T03:18:45;14.50;56.50
39777;DHT22;25453;48.162;14.510;2023-05-10T03:21:15;14.50;56.60
39777;DHT22;25453;48.162;14.510;2023-05-10T03:23:46;14.50;56.60
39777;DHT22;25453;48.162;14.510;2023-05-10T03:26:23;14.50;56.70
39777;DHT22;25453;48.162;14.510;2023-05-10T03:28:52;14.60;56.70
39777;DHT22;25453;48.162;14.510;2023-05-10T03:31:20;14.60;56.70
39777;DHT22;25453;48.162;14.510;2023-05-10T03:33:51;14.60;56.60
39777;DHT22;25453;48.162;14.510;2023-05-10T03:36:20;14.60;56.60
39777;DHT22;25453;48.162;14.510;2023-05-10T03:38:47;14.60;56.70
39777;DHT22;25453;48.162;14.510;2023-05-10T03:41:15;14.60;56.80
39777;DHT22;25453;48.162;14.510;2023-05-10T03:43:43;14.60;56.80
39777;DHT22;25453;48.162;14.510;2023-05-10T03:46:10;14.70;56.80
39777;DHT22;25453;48.162;14.510;2023-05-10T03:48:38;14.70;56.80
39777;DHT22;25453;48.162;14.510;2023-05-10T03:51:07;14.70;56.90
39777;DHT22;25453;48.162;14.510;2023-05-10T03:53:34;14.80;57.00
39777;DHT22;25453;48.162;14.510;2023-05-10T03:56:01;14.80;57.10
39777;DHT22;25453;48.162;14.510;2023-05-10T03:58:28;14.90;57.30
39777;DHT22;25453;48.162;14.510;2023-05-10T04:00:56;14.90;57.30
39777;DHT22;25453;48.162;14.510;2023-05-10T04:03:24;14.90;57.30
39777;DHT22;25453;48.162;14.510;2023-05-10T04:05:59;14.90;57.30
39777;DHT22;25453;48.162;14.510;2023-05-10T04:08:28;14.90;57.30
39777;DHT22;25453;48.162;14.510;2023-05-10T04:11:05;14.90;57.30
39777;DHT22;25453;48.162;14.510;2023-05-10T04:13:33;14.90;57.30
39777;DHT22;25453;48.162;14.510;2023-05-10T04:16:01;14.90;57.20
39777;DHT22;25453;48.162;14.510;2023-05-10T04:18:29;14.90;57.30
39777;DHT22;25453;48.162;14.510;2023-05-10T04:20:58;14.90;57.30
39777;DHT22;25453;48.162;14.510;2023-05-10T04:23:26;14.90;57.40
39777;DHT22;25453;48.162;14.510;2023-05-10T04:25:58;14.90;57.40
39777;DHT22;25453;48.162;14.510;2023-05-10T04:28:26;15.00;57.40
39777;DHT22;25453;48.162;14.510;2023-05-10T04:31:00;15.00;57.30
39777;DHT22;25453;48.162;14.510;2023-05-10T04:33:33;15.00;57.30
39777;DHT22;25453;48.162;14.510;2023-05-10T04:36:02;15.00;57.20
39777;DHT22;25453;48.162;14.510;2023-05-10T04:38:32;15.00;57.10
39777;DHT22;25453;48.162;14.510;2023-05-10T04:41:03;15.00;57.20
39777;DHT22;25453;48.162;14.510;2023-05-10T04:43:31;15.00;57.30
39777;DHT22;25453;48.162;14.510;2023-05-10T04:46:01;15.00;57.30
39777;DHT22;25453;48.162;14.510;2023-05-10T04:48:29;15.10;57.40
39777;DHT22;25453;48.162;14.510;2023-05-10T04:50:57;15.10;57.40
39777;DHT22;25453;48.162;14.510;2023-05-10T04:53:25;15.10;57.30
39777;DHT22;25453;48.162;14.510;2023-05-10T04:55:52;15.10;57.20
39777;DHT22;25453;48.162;14.510;2023-05-10T04:58:19;15.10;57.10
39777;DHT22;25453;48.162;14.510;2023-05-10T05:00:47;15.20;57.20
39777;DHT22;25453;48.162;14.510;2023-05-10T05:03:14;15.20;57.30
39777;DHT22;25453;48.162;14.510;2023-05-10T05:05:43;15.20;57.30
39777;DHT22;25453;48.162;14.510;2023-05-10T05:08:10;15.20;57.40
39777;DHT22;25453;48.162;14.510;2023-05-10T05:10:37;15.20;57.40
39777;DHT22;25453;48.162;14.510;2023-05-10T05:13:04;15.20;57.40
39777;DHT22;25453;48.162;14.510;2023-05-10T05:15:31;15.20;57.40
39777;DHT22;25453;48.162;14.510;2023-05-10T05:18:00;15.20;57.40
39777;DHT22;25453;48.162;14.510;2023-05-10T05:20:27;15.20;57.50
39777;DHT22;25453;48.162;14.510;2023-05-10T05:22:54;15.30;57.80
39777;DHT22;25453;48.162;14.510;2023-05-10T05:25:22;15.30;57.90
39777;DHT22;25453;48.162;14.510;2023-05-10T05:27:49;15.30;57.80
39777;DHT22;25453;48.162;14.510;2023-05-10T05:30:16;15.30;57.80
39777;DHT22;25453;48.162;14.510;2023-05-10T05:32:45;15.30;57.80
39777;DHT22;25453;48.162;14.510;2023-05-10T05:35:16;15.30;57.90
39777;DHT22;25453;48.162;14.510;2023-05-10T05:37:44;15.40;57.90
39777;DHT22;25453;48.162;14.510;2023-05-10T05:40:12;15.40;57.80
39777;DHT22;25453;48.162;14.510;2023-05-10T05:42:40;15.40;57.80
39777;DHT22;25453;48.162;14.510;2023-05-10T05:45:08;15.40;57.70
39777;DHT22;25453;48.162;14.510;2023-05-10T05:47:36;15.40;57.70
39777;DHT22;25453;48.162;14.510;2023-05-10T05:50:04;15.40;57.70
39777;DHT22;25453;48.162;14.510;2023-05-10T05:52:32;15.40;57.80
39777;DHT22;25453;48.162;14.510;2023-05-10T05:54:59;15.40;57.90
39777;DHT22;25453;48.162;14.510;2023-05-10T05:57:29;15.40;57.90
39777;DHT22;25453;48.162;14.510;2023-05-10T05:59:58;15.40;57.90
39777;DHT22;25453;48.162;14.510;2023-05-10T06:02:26;15.50;57.80
39777;DHT22;25453;48.162;14.510;2023-05-10T06:04:53;15.50;57.80
39777;DHT22;25453;48.162;14.510;2023-05-10T06:07:21;15.50;57.80
39777;DHT22;25453;48.162;14.510;2023-05-10T06:09:48;15.50;57.70
39777;DHT22;25453;48.162;14.510;2023-05-10T06:12:15;15.50;57.90
39777;DHT22;25453;48.162;14.510;2023-05-10T06:14:42;15.50;58.00
39777;DHT22;25453;48.162;14.510;2023-05-10T06:17:11;15.50;58.10
39777;DHT22;25453;48.162;14.510;2023-05-10T06:19:38;15.60;58.20
39777;DHT22;25453;48.162;14.510;2023-05-10T06:22:06;15.60;58.30
39777;DHT22;25453;48.162;14.510;2023-05-10T06:24:33;15.60;58.40
39777;DHT22;25453;48.162;14.510;2023-05-10T06:27:00;15.70;58.40
39777;DHT22;25453;48.162;14.510;2023-05-10T06:29:28;15.60;58.50
39777;DHT22;25453;48.162;14.510;2023-05-10T06:31:56;15.60;58.50
39777;DHT22;25453;48.162;14.510;2023-05-10T06:34:24;15.60;58.20
39777;DHT22;25453;48.162;14.510;2023-05-10T06:36:53;15.40;58.00
39777;DHT22;25453;48.162;14.510;2023-05-10T06:39:21;15.40;58.30
39777;DHT22;25453;48.162;14.510;2023-05-10T06:41:48;15.30;58.60
39777;DHT22;25453;48.162;14.510;2023-05-10T06:44:16;15.30;58.80
39777;DHT22;25453;48.162;14.510;2023-05-10T06:46:44;15.20;58.90
39777;DHT22;25453;48.162;14.510;2023-05-10T06:49:12;15.20;59.10
39777;DHT22;25453;48.162;14.510;2023-05-10T06:51:39;15.20;59.30
39777;DHT22;25453;48.162;14.510;2023-05-10T06:54:07;15.20;59.70
39777;DHT22;25453;48.162;14.510;2023-05-10T06:56:34;15.10;59.80
39777;DHT22;25453;48.162;14.510;2023-05-10T06:59:02;15.10;60.10
39777;DHT22;25453;48.162;14.510;2023-05-10T07:01:29;15.00;60.60
39777;DHT22;25453;48.162;14.510;2023-05-10T07:03:57;15.00;61.30
39777;DHT22;25453;48.162;14.510;2023-05-10T07:06:25;15.00;61.80
39777;DHT22;25453;48.162;14.510;2023-05-10T07:08:59;15.00;62.50
39777;DHT22;25453;48.162;14.510;2023-05-10T07:11:30;15.00;62.80
39777;DHT22;25453;48.162;14.510;2023-05-10T07:13:57;15.00;63.20
39777;DHT22;25453;48.162;14.510;2023-05-10T07:16:25;14.90;63.70
39777;DHT22;25453;48.162;14.510;2023-05-10T07:18:54;14.90;64.10
39777;DHT22;25453;48.162;14.510;2023-05-10T07:21:21;14.80;64.60
39777;DHT22;25453;48.162;14.510;2023-05-10T07:23:51;14.90;65.20
39777;DHT22;25453;48.162;14.510;2023-05-10T07:26:18;14.80;65.70
39777;DHT22;25453;48.162;14.510;2023-05-10T07:28:46;14.80;66.20
39777;DHT22;25453;48.162;14.510;2023-05-10T07:31:14;14.80;66.50
39777;DHT22;25453;48.162;14.510;2023-05-10T07:33:41;14.80;67.20
39777;DHT22;25453;48.162;14.510;2023-05-10T07:36:09;14.90;67.70
39777;DHT22;25453;48.162;14.510;2023-05-10T07:38:37;15.00;68.20
39777;DHT22;25453;48.162;14.510;2023-05-10T07:41:07;15.10;68.50
39777;DHT22;25453;48.162;14.510;2023-05-10T07:43:34;15.10;68.90
39777;DHT22;25453;48.162;14.510;2023-05-10T07:46:04;15.20;69.00
39777;DHT22;25453;48.162;14.510;2023-05-10T07:48:32;15.30;69.40
39777;DHT22;25453;48.162;14.510;2023-05-10T07:50:59;15.30;69.50
39777;DHT22;25453;48.162;14.510;2023-05-10T07:53:27;15.40;69.60
39777;DHT22;25453;48.162;14.510;2023-05-10T07:55:58;15.40;69.70
39777;DHT22;25453;48.162;14.510;2023-05-10T07:58:31;15.50;69.90
39777;DHT22;25453;48.162;14.510;2023-05-10T08:00:59;15.50;70.10
39777;DHT22;25453;48.162;14.510;2023-05-10T08:03:26;15.50;70.20
39777;DHT22;25453;48.162;14.510;2023-05-10T08:05:54;15.50;70.20
39777;DHT22;25453;48.162;14.510;2023-05-10T08:08:21;15.60;70.30
39777;DHT22;25453;48.162;14.510;2023-05-10T08:10:49;15.60;70.50
39777;DHT22;25453;48.162;14.510;2023-05-10T08:13:16;15.60;70.70
39777;DHT22;25453;48.162;14.510;2023-05-10T08:15:44;15.60;70.90
39777;DHT22;25453;48.162;14.510;2023-05-10T08:18:11;15.60;71.10
39777;DHT22;25453;48.162;14.510;2023-05-10T08:20:38;15.70;71.40
39777;DHT22;25453;48.162;14.510;2023-05-10T08:23:06;15.70;71.60
39777;DHT22;25453;48.162;14.510;2023-05-10T08:25:34;15.80;71.80
39777;DHT22;25453;48.162;14.510;2023-05-10T08:28:01;15.90;72.10
39777;DHT22;25453;48.162;14.510;2023-05-10T08:30:29;16.00;72.20
39777;DHT22;25453;48.162;14.510;2023-05-10T08:32:57;16.10;72.00
39777;DHT22;25453;48.162;14.510;2023-05-10T08:35:24;16.10;71.80
39777;DHT22;25453;48.162;14.510;2023-05-10T08:37:51;16.10;71.70
39777;DHT22;25453;48.162;14.510;2023-05-10T08:40:19;16.20;71.70
39777;DHT22;25453;48.162;14.510;2023-05-10T08:42:51;16.10;71.50
39777;DHT22;25453;48.162;14.510;2023-05-10T08:45:22;16.10;71.50
39777;DHT22;25453;48.162;14.510;2023-05-10T08:47:50;16.00;71.60
39777;DHT22;25453;48.162;14.510;2023-05-10T08:50:19;16.00;71.70
39777;DHT22;25453;48.162;14.510;2023-05-10T08:52:48;16.00;71.70
39777;DHT22;25453;48.162;14.510;2023-05-10T08:55:19;16.00;71.60
39777;DHT22;25453;48.162;14.510;2023-05-10T08:57:47;15.90;71.70
39777;DHT22;25453;48.162;14.510;2023-05-10T09:00:14;15.90;72.00
39777;DHT22;25453;48.162;14.510;2023-05-10T09:02:42;15.90;71.80
39777;DHT22;25453;48.162;14.510;2023-05-10T09:05:10;15.90;72.00
39777;DHT22;25453;48.162;14.510;2023-05-10T09:07:37;15.90;72.20
39777;DHT22;25453;48.162;14.510;2023-05-10T09:10:05;15.90;72.20
39777;DHT22;25453;48.162;14.510;2023-05-10T09:12:33;15.80;72.40
39777;DHT22;25453;48.162;14.510;2023-05-10T09:15:02;15.80;72.50
39777;DHT22;25453;48.162;14.510;2023-05-10T09:17:30;15.80;72.70
39777;DHT22;25453;48.162;14.510;2023-05-10T09:20:00;15.80;72.70
39777;DHT22;25453;48.162;14.510;2023-05-10T09:22:35;15.80;72.70
39777;DHT22;25453;48.162;14.510;2023-05-10T09:25:09;15.80;72.90
39777;DHT22;25453;48.162;14.510;2023-05-10T09:27:41;15.80;72.80
39777;DHT22;25453;48.162;14.510;2023-05-10T09:30:15;15.80;72.90
39777;DHT22;25453;48.162;14.510;2023-05-10T09:32:43;15.70;73.20
39777;DHT22;25453;48.162;14.510;2023-05-10T09:35:12;15.80;73.50
39777;DHT22;25453;48.162;14.510;2023-05-10T09:37:43;15.80;73.60
39777;DHT22;25453;48.162;14.510;2023-05-10T09:40:11;15.80;73.60
39777;DHT22;25453;48.162;14.510;2023-05-10T09:42:41;15.80;73.70
39777;DHT22;25453;48.162;14.510;2023-05-10T09:45:09;15.80;74.00
39777;DHT22;25453;48.162;14.510;2023-05-10T09:47:37;15.90;74.20
39777;DHT22;25453;48.162;14.510;2023-05-10T09:50:05;15.90;74.30
39777;DHT22;25453;48.162;14.510;2023-05-10T09:52:45;16.00;74.30
39777;DHT22;25453;48.162;14.510;2023-05-10T09:55:15;16.00;74.20
39777;DHT22;25453;48.162;14.510;2023-05-10T09:57:43;16.10;74.20
39777;DHT22;25453;48.162;14.510;2023-05-10T10:00:15;16.10;74.30
39777;DHT22;25453;48.162;14.510;2023-05-10T10:02:53;16.20;74.40
39777;DHT22;25453;48.162;14.510;2023-05-10T10:05:29;16.20;74.50
39777;DHT22;25453;48.162;14.510;2023-05-10T10:07:57;16.30;74.50
39777;DHT22;25453;48.162;14.510;2023-05-10T10:10:25;16.40;74.30
39777;DHT22;25453;48.162;14.510;2023-05-10T10:12:52;16.40;74.40
39777;DHT22;25453;48.162;14.510;2023-05-10T10:15:21;16.50;74.30
39777;DHT22;25453;48.162;14.510;2023-05-10T10:17:49;16.50;74.10
39777;DHT22;25453;48.162;14.510;2023-05-10T10:20:17;16.50;74.20
39777;DHT22;25453;48.162;14.510;2023-05-10T10:22:46;16.50;74.30
39777;DHT22;25453;48.162;14.510;2023-05-10T10:25:14;16.50;74.10
39777;DHT22;25453;48.162;14.510;2023-05-10T10:30:31;16.50;74.20
39777;DHT22;25453;48.162;14.510;2023-05-10T10:35:55;16.60;74.20
39777;DHT22;25453;48.162;14.510;2023-05-10T10:38:25;16.60;74.10
39777;DHT22;25453;48.162;14.510;2023-05-10T10:41:02;16.50;74.20
39777;DHT22;25453;48.162;14.510;2023-05-10T10:43:30;16.50;74.20
39777;DHT22;25453;48.162;14.510;2023-05-10T10:46:10;16.50;74.40
39777;DHT22;25453;48.162;14.510;2023-05-10T10:48:41;16.50;74.40
39777;DHT22;25453;48.162;14.510;2023-05-10T10:51:14;16.50;74.30
39777;DHT22;25453;48.162;14.510;2023-05-10T10:53:43;16.50;74.40
39777;DHT22;25453;48.162;14.510;2023-05-10T10:56:12;16.50;74.60
39777;DHT22;25453;48.162;14.510;2023-05-10T10:58:48;16.40;74.80
39777;DHT22;25453;48.162;14.510;2023-05-10T11:01:17;16.40;74.90
39777;DHT22;25453;48.162;14.510;2023-05-10T11:06:31;16.40;75.10
39777;DHT22;25453;48.162;14.510;2023-05-10T11:09:10;16.50;75.20
39777;DHT22;25453;48.162;14.510;2023-05-10T11:11:51;16.50;75.30
39777;DHT22;25453;48.162;14.510;2023-05-10T11:14:20;16.50;75.30
39777;DHT22;25453;48.162;14.510;2023-05-10T11:16:49;16.50;75.40
39777;DHT22;25453;48.162;14.510;2023-05-10T11:19:17;16.50;75.50
39777;DHT22;25453;48.162;14.510;2023-05-10T11:21:48;16.50;75.50
39777;DHT22;25453;48.162;14.510;2023-05-10T11:24:20;16.50;75.50
39777;DHT22;25453;48.162;14.510;2023-05-10T11:26:49;16.50;75.60
39777;DHT22;25453;48.162;14.510;2023-05-10T11:29:19;16.50;75.80
39777;DHT22;25453;48.162;14.510;2023-05-10T11:31:47;16.50;75.90
39777;DHT22;25453;48.162;14.510;2023-05-10T11:34:25;16.50;76.00
39777;DHT22;25453;48.162;14.510;2023-05-10T11:36:54;16.50;76.10
39777;DHT22;25453;48.162;14.510;2023-05-10T11:39:25;16.60;76.30
39777;DHT22;25453;48.162;14.510;2023-05-10T11:41:53;16.60;76.30
39777;DHT22;25453;48.162;14.510;2023-05-10T11:44:20;16.70;76.40
39777;DHT22;25453;48.162;14.510;2023-05-10T11:46:49;16.70;76.50
39777;DHT22;25453;48.162;14.510;2023-05-10T11:49:18;16.80;76.40
39777;DHT22;25453;48.162;14.510;2023-05-10T11:51:47;16.80;76.40
39777;DHT22;25453;48.162;14.510;2023-05-10T11:54:16;16.80;76.40
39777;DHT22;25453;48.162;14.510;2023-05-10T11:56:45;16.80;76.30
39777;DHT22;25453;48.162;14.510;2023-05-10T11:59:13;16.80;76.30
39777;DHT22;25453;48.162;14.510;2023-05-10T12:01:41;16.80;76.30
39777;DHT22;25453;48.162;14.510;2023-05-10T12:04:11;16.80;76.30
39777;DHT22;25453;48.162;14.510;2023-05-10T12:06:39;16.80;76.30
39777;DHT22;25453;48.162;14.510;2023-05-10T12:09:07;16.80;76.30
39777;DHT22;25453;48.162;14.510;2023-05-10T12:11:39;16.70;76.40
39777;DHT22;25453;48.162;14.510;2023-05-10T12:14:10;16.70;76.40
39777;DHT22;25453;48.162;14.510;2023-05-10T12:16:37;16.70;76.40
39777;DHT22;25453;48.162;14.510;2023-05-10T12:19:05;16.70;76.50
39777;DHT22;25453;48.162;14.510;2023-05-10T12:21:32;16.70;76.60
39777;DHT22;25453;48.162;14.510;2023-05-10T12:24:03;16.60;76.70
39777;DHT22;25453;48.162;14.510;2023-05-10T12:26:32;16.60;77.00
39777;DHT22;25453;48.162;14.510;2023-05-10T12:29:15;16.60;77.20
39777;DHT22;25453;48.162;14.510;2023-05-10T12:31:55;16.60;77.40
39777;DHT22;25453;48.162;14.510;2023-05-10T12:34:39;16.60;77.50
39777;DHT22;25453;48.162;14.510;2023-05-10T12:37:06;16.60;77.80
39777;DHT22;25453;48.162;14.510;2023-05-10T12:42:07;16.60;78.20
39777;DHT22;25453;48.162;14.510;2023-05-10T12:44:34;16.60;78.30
39777;DHT22;25453;48.162;14.510;2023-05-10T12:47:01;16.60;78.30
39777;DHT22;25453;48.162;14.510;2023-05-10T12:49:29;16.60;78.50
39777;DHT22;25453;48.162;14.510;2023-05-10T12:51:57;16.60;78.70
39777;DHT22;25453;48.162;14.510;2023-05-10T12:54:24;16.60;78.90
39777;DHT22;25453;48.162;14.510;2023-05-10T12:56:51;16.60;79.10
39777;DHT22;25453;48.162;14.510;2023-05-10T12:59:19;16.60;79.20
39777;DHT22;25453;48.162;14.510;2023-05-10T13:01:46;16.60;79.40
39777;DHT22;25453;48.162;14.510;2023-05-10T13:04:13;16.60;79.50
39777;DHT22;25453;48.162;14.510;2023-05-10T13:06:40;16.60;79.70
39777;DHT22;25453;48.162;14.510;2023-05-10T13:09:10;16.70;79.90
39777;DHT22;25453;48.162;14.510;2023-05-10T13:11:38;16.70;80.00
39777;DHT22;25453;48.162;14.510;2023-05-10T13:14:05;16.70;80.00
39777;DHT22;25453;48.162;14.510;2023-05-10T13:16:37;16.80;80.10
39777;DHT22;25453;48.162;14.510;2023-05-10T13:19:05;16.80;80.20
39777;DHT22;25453;48.162;14.510;2023-05-10T13:21:32;16.90;80.20
39777;DHT22;25453;48.162;14.510;2023-05-10T13:23:59;16.90;80.20
39777;DHT22;25453;48.162;14.510;2023-05-10T13:26:35;16.90;80.20
39777;DHT22;25453;48.162;14.510;2023-05-10T13:29:03;17.00;80.30
39777;DHT22;25453;48.162;14.510;2023-05-10T13:31:34;17.00;80.20
39777;DHT22;25453;48.162;14.510;2023-05-10T13:34:03;17.00;80.20
39777;DHT22;25453;48.162;14.510;2023-05-10T13:36:30;17.00;80.20
39777;DHT22;25453;48.162;14.510;2023-05-10T13:38:59;17.00;80.10
39777;DHT22;25453;48.162;14.510;2023-05-10T13:41:30;17.00;80.30
39777;DHT22;25453;48.162;14.510;2023-05-10T13:43:57;17.00;80.50
39777;DHT22;25453;48.162;14.510;2023-05-10T13:46:25;17.00;80.50
39777;DHT22;25453;48.162;14.510;2023-05-10T13:48:52;17.00;80.60
39777;DHT22;25453;48.162;14.510;2023-05-10T13:51:21;17.00;80.60
39777;DHT22;25453;48.162;14.510;2023-05-10T13:53:48;17.00;80.60
39777;DHT22;25453;48.162;14.510;2023-05-10T13:56:16;17.00;80.70
39777;DHT22;25453;48.162;14.510;2023-05-10T13:58:43;17.00;80.80
39777;DHT22;25453;48.162;14.510;2023-05-10T14:01:12;17.00;80.90
39777;DHT22;25453;48.162;14.510;2023-05-10T14:03:41;17.00;80.90
39777;DHT22;25453;48.162;14.510;2023-05-10T14:06:09;17.00;80.90
39777;DHT22;25453;48.162;14.510;2023-05-10T14:08:36;17.00;80.90
39777;DHT22;25453;48.162;14.510;2023-05-10T14:11:06;17.00;81.00
39777;DHT22;25453;48.162;14.510;2023-05-10T14:13:33;17.10;81.00
39777;DHT22;25453;48.162;14.510;2023-05-10T14:16:04;17.10;81.10
39777;DHT22;25453;48.162;14.510;2023-05-10T14:18:31;17.10;81.20
39777;DHT22;25453;48.162;14.510;2023-05-10T14:20:59;17.10;80.90
39777;DHT22;25453;48.162;14.510;2023-05-10T14:23:27;17.10;80.90
39777;DHT22;25453;48.162;14.510;2023-05-10T14:25:55;17.10;81.00
39777;DHT22;25453;48.162;14.510;2023-05-10T14:28:23;17.10;81.00
39777;DHT22;25453;48.162;14.510;2023-05-10T14:30:51;17.10;81.00
39777;DHT22;25453;48.162;14.510;2023-05-10T14:33:19;17.10;80.90
39777;DHT22;25453;48.162;14.510;2023-05-10T14:35:47;17.10;80.60
39777;DHT22;25453;48.162;14.510;2023-05-10T14:38:15;17.10;80.70
39777;DHT22;25453;48.162;14.510;2023-05-10T14:40:42;17.10;80.70
39777;DHT22;25453;48.162;14.510;2023-05-10T14:43:10;17.00;80.70
39777;DHT22;25453;48.162;14.510;2023-05-10T14:45:38;17.00;80.80
39777;DHT22;25453;48.162;14.510;2023-05-10T14:48:05;17.00;80.80
39777;DHT22;25453;48.162;14.510;2023-05-10T14:50:33;17.00;80.90
39777;DHT22;25453;48.162;14.510;2023-05-10T14:53:04;17.00;80.80
39777;DHT22;25453;48.162;14.510;2023-05-10T14:55:32;17.00;80.90
39777;DHT22;25453;48.162;14.510;2023-05-10T14:57:59;17.00;80.90
39777;DHT22;25453;48.162;14.510;2023-05-10T15:00:27;17.00;81.00
39777;DHT22;25453;48.162;14.510;2023-05-10T15:02:55;17.00;81.00
39777;DHT22;25453;48.162;14.510;2023-05-10T15:05:24;17.00;81.00
39777;DHT22;25453;48.162;14.510;2023-05-10T15:07:52;17.00;81.00
39777;DHT22;25453;48.162;14.510;2023-05-10T15:10:19;17.00;81.00
39777;DHT22;25453;48.162;14.510;2023-05-10T15:12:46;16.90;80.90
39777;DHT22;25453;48.162;14.510;2023-05-10T15:15:14;16.90;81.10
39777;DHT22;25453;48.162;14.510;2023-05-10T15:17:42;16.90;81.00
39777;DHT22;25453;48.162;14.510;2023-05-10T15:20:11;16.90;81.10
39777;DHT22;25453;48.162;14.510;2023-05-10T15:22:40;17.00;81.10
39777;DHT22;25453;48.162;14.510;2023-05-10T15:25:07;17.00;81.00
39777;DHT22;25453;48.162;14.510;2023-05-10T15:27:36;17.00;81.00
39777;DHT22;25453;48.162;14.510;2023-05-10T15:30:04;17.00;81.00
39777;DHT22;25453;48.162;14.510;2023-05-10T15:32:34;17.00;81.00
39777;DHT22;25453;48.162;14.510;2023-05-10T15:35:02;17.00;80.90
39777;DHT22;25453;48.162;14.510;2023-05-10T15:37:29;17.00;80.90
39777;DHT22;25453;48.162;14.510;2023-05-10T15:39:56;17.10;80.90
39777;DHT22;25453;48.162;14.510;2023-05-10T15:42:30;17.10;80.90
39777;DHT22;25453;48.162;14.510;2023-05-10T15:45:01;17.10;80.60